Time;durP1;ratioP1;P1;durP2;ratioP2;P2;SDS_P1;SDS_P2;PMS_P1;PMS_P2;Temp;Humidity;BMP_temperature;BMP_pressure;BME280_temperature;BME280_humidity;BME280_pressure;Samples;Min_cycle;Max_cycle;Signal;HPM_P1;HPM_P2
2023/04/11 00:01:51;;;;;;;669.03;634.73;;;8.90;99.90;;;;;;6274910;22;20414;-80
2023/04/11 00:04:19;;;;;;;639.13;609.57;;;9.20;99.90;;;;;;6274432;22;20995;-80
2023/04/11 00:06:46;;;;;;;618.57;592.97;;;9.20;99.90;;;;;;6274903;22;20445;-80
2023/04/11 00:09:13;;;;;;;637.27;609.63;;;9.40;99.90;;;;;;6274553;22;20416;-80
2023/04/11 00:11:40;;;;;;;617.43;591.93;;;9.40;99.90;;;;;;6274747;22;20438;-79
2023/04/11 00:14:09;;;;;;;625.87;599.17;;;9.40;99.90;;;;;;6274709;22;20438;-79
2023/04/11 00:16:36;;;;;;;622.47;596.87;;;9.40;99.90;;;;;;6274495;22;20410;-79
2023/04/11 00:19:03;;;;;;;616.70;590.73;;;9.40;99.90;;;;;;6248111;22;20419;-80
2023/04/11 00:21:30;;;;;;;599.90;575.30;;;9.50;99.90;;;;;;6274403;22;20422;-79
2023/04/11 00:23:59;;;;;;;593.83;570.07;;;9.50;99.90;;;;;;6274742;22;20430;-79
2023/04/11 00:26:27;;;;;;;564.00;542.97;;;9.60;99.90;;;;;;6247092;22;20414;-79
2023/04/11 00:28:55;;;;;;;531.30;512.37;;;9.60;99.90;;;;;;6274181;22;20406;-80
2023/04/11 00:31:23;;;;;;;495.03;478.10;;;9.70;99.90;;;;;;6274862;22;20415;-80
2023/04/11 00:33:50;;;;;;;462.57;446.83;;;9.70;99.90;;;;;;6247227;22;20787;-79
2023/04/11 00:36:18;;;;;;;455.57;440.10;;;9.70;99.90;;;;;;6274619;22;20418;-79
2023/04/11 00:38:45;;;;;;;425.07;410.57;;;9.70;99.90;;;;;;6274067;22;20434;-79
2023/04/11 00:41:12;;;;;;;404.10;390.80;;;9.70;99.90;;;;;;6274645;22;20468;-79
2023/04/11 00:43:38;;;;;;;413.57;400.00;;;9.80;99.90;;;;;;6274511;22;20444;-79
2023/04/11 00:46:07;;;;;;;369.80;357.80;;;9.70;99.90;;;;;;6274622;22;20748;-79
2023/04/11 00:48:36;;;;;;;288.53;278.97;;;9.70;99.90;;;;;;6274777;22;20428;-79
2023/04/11 00:51:03;;;;;;;294.53;284.97;;;9.60;99.90;;;;;;6274464;22;20449;-79
2023/04/11 00:53:31;;;;;;;300.80;290.50;;;9.50;99.90;;;;;;6247122;22;20430;-80
2023/04/11 00:55:59;;;;;;;239.70;231.80;;;9.50;99.90;;;;;;6257564;22;20552;-79
2023/04/11 00:58:30;;;;;;;226.57;218.43;;;9.50;99.90;;;;;;6273421;22;20468;-79
2023/04/11 01:00:57;;;;;;;119.37;115.30;;;9.50;99.90;;;;;;6274008;22;20390;-80
2023/04/11 01:03:26;;;;;;;197.13;188.13;;;9.60;99.90;;;;;;6274412;22;20462;-79
2023/04/11 01:05:58;;;;;;;142.13;136.83;;;9.60;99.90;;;;;;6273974;22;20895;-80
2023/04/11 01:08:25;;;;;;;82.83;79.23;;;9.60;99.90;;;;;;6274195;22;20406;-79
2023/04/11 01:10:52;;;;;;;64.90;62.10;;;9.60;99.90;;;;;;6274294;22;20414;-79
2023/04/11 01:13:19;;;;;;;48.77;46.47;;;9.50;99.90;;;;;;6284481;22;20432;-80
2023/04/11 01:15:47;;;;;;;56.77;54.37;;;9.60;99.90;;;;;;6274308;22;20441;-80
2023/04/11 01:18:15;;;;;;;48.63;46.23;;;9.50;99.90;;;;;;6248495;22;20503;-80
2023/04/11 03:26:01;;;;;;;18.10;7.50;;;8.40;99.90;;;;;;6301986;22;20452;-85
2023/04/11 07:21:31;;;;;;;12.37;4.07;;;10.40;99.90;;;;;;6302812;22;20975;-94
2023/04/11 07:24:01;;;;;;;9.00;2.50;;;10.60;99.90;;;;;;6339857;22;20400;-95
2023/04/11 07:26:31;;;;;;;11.60;2.80;;;10.50;99.90;;;;;;6341495;22;20424;-93
2023/04/11 07:28:58;;;;;;;9.43;4.00;;;10.50;99.90;;;;;;6342459;22;20386;-94
2023/04/11 07:31:26;;;;;;;17.33;2.47;;;10.50;99.90;;;;;;6311569;22;20430;-94
2023/04/11 07:33:53;;;;;;;16.17;2.73;;;10.50;99.90;;;;;;6309620;22;20402;-93
2023/04/11 07:36:22;;;;;;;6.30;2.00;;;10.40;99.90;;;;;;6300515;22;20464;-93
2023/04/11 07:38:51;;;;;;;13.30;2.60;;;10.50;99.90;;;;;;6300611;22;20440;-93
2023/04/11 07:41:18;;;;;;;16.07;4.20;;;10.40;99.90;;;;;;6301722;22;20436;-92
2023/04/11 07:43:45;;;;;;;8.90;2.47;;;10.50;99.90;;;;;;6298822;22;20410;-93
2023/04/11 07:46:13;;;;;;;12.83;2.30;;;10.50;99.90;;;;;;6298717;22;20402;-93
2023/04/11 07:48:41;;;;;;;13.00;3.23;;;10.60;99.90;;;;;;6300411;22;20406;-93
2023/04/11 07:51:08;;;;;;;22.27;2.60;;;10.70;99.90;;;;;;6310730;22;20446;-93
2023/04/11 07:53:38;;;;;;;12.40;3.20;;;10.70;99.90;;;;;;6301122;22;20414;-95
2023/04/11 07:56:07;;;;;;;23.20;3.13;;;10.70;98.70;;;;;;6302606;22;20411;-95
2023/04/11 07:58:34;;;;;;;12.97;3.10;;;10.80;98.50;;;;;;6302437;22;20442;-94
2023/04/11 08:01:01;;;;;;;13.87;2.60;;;11.20;99.90;;;;;;6299594;22;20434;-94
2023/04/11 08:03:28;;;;;;;7.00;2.67;;;11.40;99.10;;;;;;6298347;22;20425;-78
2023/04/11 08:05:55;;;;;;;11.83;2.70;;;11.30;97.30;;;;;;6273801;22;20391;-77
2023/04/11 08:08:22;;;;;;;10.90;3.07;;;11.60;95.20;;;;;;6274009;22;20430;-77
2023/04/11 08:10:49;;;;;;;8.90;2.53;;;11.90;93.90;;;;;;6274493;22;20448;-77
2023/04/11 08:13:17;;;;;;;12.67;2.10;;;11.90;94.10;;;;;;6265030;22;21013;-77
2023/04/11 08:15:44;;;;;;;8.90;2.53;;;11.50;93.60;;;;;;6244199;23;20443;-77
2023/04/11 08:18:11;;;;;;;12.07;3.23;;;11.60;95.30;;;;;;6243214;23;20996;-77
2023/04/11 08:20:39;;;;;;;22.40;2.40;;;11.90;93.60;;;;;;6243821;23;20419;-77
2023/04/11 08:23:07;;;;;;;11.00;2.60;;;12.10;93.40;;;;;;6243547;22;20431;-76
2023/04/11 08:25:35;;;;;;;13.27;2.73;;;12.60;94.40;;;;;;6242462;23;20416;-78
2023/04/11 08:28:03;;;;;;;10.90;1.60;;;12.30;90.50;;;;;;6253622;23;20914;-76
2023/04/11 08:30:32;;;;;;;14.67;2.23;;;12.30;90.00;;;;;;6244793;23;20415;-76
2023/04/11 08:32:59;;;;;;;12.77;2.20;;;12.20;88.70;;;;;;6242807;22;20467;-77
2023/04/11 08:35:26;;;;;;;8.30;2.50;;;12.10;91.00;;;;;;6243805;23;20182;-77
2023/04/11 08:37:57;;;;;;;14.73;2.33;;;11.90;91.70;;;;;;6243940;23;20973;-89
2023/04/11 08:40:24;;;;;;;6.80;1.93;;;12.10;91.10;;;;;;6244180;23;20474;-77
2023/04/11 08:42:57;;;;;;;9.97;2.47;;;12.30;91.90;;;;;;6243882;22;20498;-77
2023/04/11 08:45:24;;;;;;;8.70;2.33;;;12.60;88.90;;;;;;6244373;23;20474;-77
2023/04/11 08:47:53;;;;;;;7.23;2.20;;;13.00;90.00;;;;;;6244335;23;20418;-77
2023/04/11 08:50:20;;;;;;;7.40;1.70;;;13.10;84.00;;;;;;6244166;23;20418;-77
2023/04/11 08:52:49;;;;;;;15.90;3.50;;;12.70;86.20;;;;;;6244263;22;20417;-77
2023/04/11 08:55:16;;;;;;;7.20;2.10;;;12.90;84.40;;;;;;6243762;23;20461;-77
2023/04/11 08:57:42;;;;;;;13.57;1.77;;;13.20;79.90;;;;;;6244153;23;20499;-77
2023/04/11 09:00:13;;;;;;;8.27;1.80;;;13.60;90.10;;;;;;6243930;23;20411;-77
2023/04/11 09:03:01;;;;;;;10.23;1.73;;;14.00;80.60;;;;;;6243560;22;20447;-78
2023/04/11 09:05:30;;;;;;;9.43;1.77;;;14.30;80.30;;;;;;6242834;23;20512;-77
2023/04/11 09:07:59;;;;;;;10.77;2.10;;;14.50;74.90;;;;;;6244677;23;20493;-77
2023/04/11 09:10:26;;;;;;;11.17;2.13;;;14.60;66.10;;;;;;6217140;23;20899;-78
2023/04/11 09:12:54;;;;;;;8.68;2.03;;;14.80;65.30;;;;;;6242398;22;20446;-77
2023/04/11 09:15:22;;;;;;;8.23;2.10;;;14.40;65.00;;;;;;6241717;23;20419;-77
2023/04/11 09:17:49;;;;;;;13.17;2.90;;;14.10;65.60;;;;;;6243250;23;20484;-77
2023/04/11 09:20:19;;;;;;;8.23;1.53;;;14.10;66.70;;;;;;6243792;23;20420;-78
2023/04/11 09:22:50;;;;;;;9.50;1.93;;;14.10;68.00;;;;;;6243628;22;20690;-77
2023/04/11 09:25:18;;;;;;;10.23;2.53;;;14.10;63.40;;;;;;6243611;23;20489;-78
2023/04/11 09:27:46;;;;;;;12.68;2.60;;;14.20;67.20;;;;;;6243040;23;20444;-78
2023/04/11 09:30:22;;;;;;;11.93;2.20;;;14.30;62.80;;;;;;6244115;23;20165;-78
2023/04/11 09:32:51;;;;;;;10.30;2.13;;;14.50;69.40;;;;;;6254020;22;20390;-77
2023/04/11 09:35:22;;;;;;;7.67;2.40;;;14.30;67.90;;;;;;6244613;23;20815;-78
2023/04/11 09:37:50;;;;;;;9.77;1.70;;;14.80;66.30;;;;;;6245036;23;20396;-77
2023/04/11 09:40:20;;;;;;;13.00;2.00;;;15.10;67.80;;;;;;6246069;23;20802;-77
2023/04/11 09:42:57;;;;;;;6.03;1.80;;;15.80;60.80;;;;;;6246353;22;20419;-78
2023/04/11 09:45:25;;;;;;;10.93;2.13;;;15.60;62.20;;;;;;6246596;23;20429;-78
2023/04/11 09:47:54;;;;;;;4.37;1.10;;;15.50;57.70;;;;;;6246134;23;20415;-78
2023/04/11 09:50:23;;;;;;;16.77;2.20;;;14.40;58.30;;;;;;6245767;23;21007;-78
2023/04/11 09:52:54;;;;;;;9.57;1.63;;;15.00;65.50;;;;;;6245856;22;20416;-78
2023/04/11 09:55:23;;;;;;;10.53;2.50;;;14.20;57.70;;;;;;6256044;23;20757;-77
2023/04/11 09:57:51;;;;;;;15.53;2.40;;;14.10;60.60;;;;;;6246169;23;20428;-77
2023/04/11 10:00:20;;;;;;;15.83;2.20;;;14.20;64.50;;;;;;6246150;23;20455;-77
2023/04/11 10:02:49;;;;;;;7.10;2.00;;;13.60;59.60;;;;;;6245396;22;20929;-77
2023/04/11 10:05:17;;;;;;;11.20;2.00;;;13.20;61.50;;;;;;6245431;23;20454;-77
2023/04/11 10:07:52;;;;;;;8.80;1.90;;;13.70;62.80;;;;;;6244483;23;20413;-77
2023/04/11 10:10:21;;;;;;;9.10;2.00;;;14.60;61.20;;;;;;6245036;23;20471;-77
2023/04/11 10:12:48;;;;;;;7.93;2.20;;;15.30;57.50;;;;;;6245241;22;20418;-77
2023/04/11 10:15:16;;;;;;;8.67;1.80;;;15.40;48.30;;;;;;6245380;23;20417;-78
2023/04/11 10:18:05;;;;;;;8.93;2.17;;;15.60;49.10;;;;;;6245802;23;20419;-76
2023/04/11 10:20:44;;;;;;;11.50;2.43;;;16.40;50.10;;;;;;6245476;23;20431;-78
2023/04/11 10:23:14;;;;;;;7.63;1.80;;;16.00;50.50;;;;;;6245171;22;20987;-78
2023/04/11 10:26:00;;;;;;;7.00;2.10;;;15.50;42.60;;;;;;6245136;23;20398;-77
2023/04/11 10:28:37;;;;;;;8.53;1.53;;;15.40;40.10;;;;;;6245852;23;20400;-77
2023/04/11 10:31:06;;;;;;;13.53;1.57;;;15.20;39.90;;;;;;6245191;23;20413;-77
2023/04/11 10:33:34;;;;;;;7.20;1.37;;;15.20;38.90;;;;;;6244070;22;20444;-78
2023/04/11 10:36:04;;;;;;;11.80;2.00;;;14.80;44.50;;;;;;6243990;23;20454;-78
2023/04/11 10:38:49;;;;;;;6.00;1.40;;;15.00;42.60;;;;;;6245413;23;20186;-76
2023/04/11 10:41:27;;;;;;;6.60;1.40;;;15.40;40.10;;;;;;6245059;23;20452;-77
2023/04/11 10:44:13;;;;;;;14.50;1.90;;;15.60;31.40;;;;;;6245024;22;20433;-77
2023/04/11 10:46:46;;;;;;;6.67;1.60;;;16.10;31.60;;;;;;6244882;23;20409;-77
2023/04/11 10:49:30;;;;;;;9.83;1.80;;;16.00;35.40;;;;;;6245234;23;20390;-77
2023/04/11 10:52:16;;;;;;;10.23;1.47;;;15.60;34.20;;;;;;6245451;23;20474;-77
2023/04/11 10:54:46;;;;;;;5.77;1.20;;;15.80;41.70;;;;;;6244984;22;20740;-77
2023/04/11 10:57:13;;;;;;;7.43;1.53;;;16.30;39.90;;;;;;6245384;23;20409;-77
2023/04/11 11:00:13;;;;;;;4.90;1.40;;;16.80;31.10;;;;;;6245551;23;20529;-78
2023/04/11 11:02:41;;;;;;;7.15;2.08;;;16.60;26.50;;;;;;6092439;23;20753;-77
2023/04/11 11:05:22;;;;;;;8.63;2.37;;;16.90;29.60;;;;;;6212762;23;20280;-79
2023/04/11 11:07:51;;;;;;;11.50;1.80;;;17.00;26.60;;;;;;6244776;23;20418;-78
2023/04/11 11:10:41;;;;;;;7.30;1.43;;;17.40;20.60;;;;;;6244401;23;20415;-77
2023/04/11 11:13:08;;;;;;;6.60;1.80;;;17.60;23.50;;;;;;6244807;22;20466;-78
2023/04/11 11:15:36;;;;;;;8.27;2.40;;;17.60;23.50;;;;;;6244416;23;20418;-78
2023/04/11 11:18:09;;;;;;;6.33;1.50;;;17.40;22.80;;;;;;6244545;23;20505;-78
2023/04/11 11:20:36;;;;;;;11.50;2.47;;;17.60;24.30;;;;;;6244498;23;20496;-77
2023/04/11 11:23:05;;;;;;;7.00;1.50;;;18.00;27.00;;;;;;6244535;22;20513;-77
2023/04/11 11:25:32;;;;;;;8.40;1.70;;;18.20;22.20;;;;;;6244974;23;20411;-77
2023/04/11 11:28:03;;;;;;;6.30;1.30;;;18.20;21.10;;;;;;6244761;23;20569;-78
2023/04/11 11:30:30;;;;;;;5.50;1.67;;;17.80;18.20;;;;;;6244784;23;20396;-77
2023/04/11 11:32:57;;;;;;;9.57;2.10;;;18.10;16.10;;;;;;6244729;22;20431;-78
2023/04/11 11:35:25;;;;;;;9.47;1.50;;;18.90;15.10;;;;;;6244836;23;20931;-78
2023/04/11 11:37:52;;;;;;;6.50;1.63;;;18.40;16.20;;;;;;6245343;23;20420;-78
2023/04/11 11:40:21;;;;;;;7.87;1.40;;;18.20;14.50;;;;;;6245409;23;20459;-78
2023/04/11 11:42:51;;;;;;;7.03;1.70;;;17.70;20.50;;;;;;6244446;22;20449;-78
2023/04/11 11:45:21;;;;;;;4.73;1.40;;;18.20;18.50;;;;;;6244808;23;20747;-78
2023/04/11 11:47:49;;;;;;;5.77;1.67;;;17.80;17.50;;;;;;6245022;23;20440;-78
2023/04/11 11:50:27;;;;;;;8.53;1.70;;;17.60;15.90;;;;;;6245004;23;20409;-77
2023/04/11 11:52:54;;;;;;;7.30;1.83;;;17.80;20.50;;;;;;6244936;22;20438;-78
2023/04/11 11:55:33;;;;;;;14.63;1.63;;;17.70;18.00;;;;;;6244778;23;20436;-78
2023/04/11 11:58:02;;;;;;;9.10;2.30;;;17.70;16.80;;;;;;6244392;23;20420;-78
2023/04/11 12:00:32;;;;;;;10.07;1.87;;;17.70;14.50;;;;;;6244554;23;20495;-77
2023/04/11 12:02:59;;;;;;;6.10;1.50;;;17.40;16.60;;;;;;6244312;22;20463;-78
2023/04/11 12:05:28;;;;;;;10.20;2.17;;;16.60;17.30;;;;;;6244276;23;20419;-78
2023/04/11 12:07:57;;;;;;;9.10;1.97;;;15.70;18.80;;;;;;6244277;23;20443;-78
2023/04/11 12:10:25;;;;;;;6.97;1.50;;;16.40;24.50;;;;;;6244357;23;20478;-78
2023/04/11 12:12:51;;;;;;;7.90;1.90;;;17.30;19.30;;;;;;6244332;22;20419;-78
2023/04/11 12:15:20;;;;;;;6.10;2.00;;;17.90;18.20;;;;;;6243956;23;21009;-78
2023/04/11 12:17:50;;;;;;;4.77;1.53;;;18.20;18.00;;;;;;6244561;23;20426;-78
2023/04/11 12:20:21;;;;;;;6.70;2.17;;;18.40;11.10;;;;;;6244057;23;20449;-78
2023/04/11 12:22:48;;;;;;;5.77;1.53;;;18.10;12.00;;;;;;6244734;22;20399;-78
2023/04/11 12:25:15;;;;;;;8.03;1.50;;;17.00;10.10;;;;;;6244159;23;20416;-78
2023/04/11 12:27:42;;;;;;;8.50;1.40;;;17.30;16.80;;;;;;6244710;23;20750;-78
2023/04/11 12:30:10;;;;;;;9.03;2.00;;;17.50;12.80;;;;;;6244485;23;20411;-77
2023/04/11 12:32:39;;;;;;;5.60;1.40;;;16.70;9.80;;;;;;6242898;22;20422;-77
2023/04/11 12:35:09;;;;;;;5.97;1.70;;;15.90;14.10;;;;;;6244618;23;20172;-77
2023/04/11 12:37:38;;;;;;;12.40;1.60;;;16.20;16.40;;;;;;6242351;23;20413;-78
2023/04/11 12:40:09;;;;;;;4.77;1.30;;;15.60;14.40;;;;;;6243750;23;20434;-78
2023/04/11 12:42:37;;;;;;;7.50;1.13;;;16.40;12.60;;;;;;6243862;22;20767;-77
2023/04/11 12:45:06;;;;;;;10.13;1.80;;;17.40;12.10;;;;;;6243391;23;20421;-78
2023/04/11 12:47:34;;;;;;;4.77;1.07;;;17.60;10.50;;;;;;6243827;23;20417;-78
2023/04/11 12:50:01;;;;;;;8.57;1.63;;;17.60;6.30;;;;;;6243733;23;20497;-77
2023/04/11 12:52:30;;;;;;;9.13;1.97;;;17.10;4.30;;;;;;6244444;23;20493;-77
2023/04/11 12:54:57;;;;;;;8.83;1.30;;;18.00;10.80;;;;;;6243823;22;20498;-77
2023/04/11 12:57:24;;;;;;;9.43;1.67;;;18.00;6.90;;;;;;6243952;23;20414;-77
2023/04/11 12:59:51;;;;;;;5.93;1.47;;;18.90;11.50;;;;;;6244349;23;20489;-77
2023/04/11 13:02:18;;;;;;;40.83;5.33;;;19.20;6.60;;;;;;6243728;23;20910;-78
2023/04/11 13:04:45;;;;;;;15.47;1.67;;;19.10;1.00;;;;;;6242994;22;20451;-77
2023/04/11 13:07:12;;;;;;;14.40;2.07;;;19.50;5.50;;;;;;6244031;23;20412;-78
2023/04/11 13:09:40;;;;;;;5.87;1.40;;;18.70;1.00;;;;;;6243191;23;20445;-77
2023/04/11 13:12:09;;;;;;;4.77;1.10;;;18.80;1.00;;;;;;6243441;23;20418;-77
2023/04/11 13:14:36;;;;;;;8.67;1.23;;;18.70;1.00;;;;;;6245389;22;20437;-77
2023/04/11 13:17:03;;;;;;;9.87;1.87;;;18.70;1.00;;;;;;6245356;23;20527;-77
2023/04/11 13:19:30;;;;;;;8.70;1.37;;;18.70;1.30;;;;;;6245462;23;20434;-78
2023/04/11 15:13:26;;;;;;;9.90;2.57;;;17.40;13.30;;;;;;6274426;22;20437;-91
2023/04/11 15:15:53;;;;;;;6.30;1.00;;;17.60;15.40;;;;;;6330668;22;20464;-90
2023/04/11 15:18:56;;;;;;;7.57;1.40;;;18.10;15.50;;;;;;6336315;22;20413;-94
2023/04/11 15:21:23;;;;;;;5.23;1.20;;;18.40;13.70;;;;;;6300005;22;20453;-92
2023/04/11 15:24:36;;;;;;;12.00;4.40;;;19.00;12.30;;;;;;6313109;22;20398;-95
2023/04/11 15:27:03;;;;;;;8.73;1.60;;;19.70;9.80;;;;;;6244960;22;20415;-90
2023/04/11 15:29:31;;;;;;;9.60;3.60;;;20.00;9.90;;;;;;6282214;22;20459;-90
2023/04/11 15:32:05;;;;;;;14.10;7.63;;;19.80;7.50;;;;;;6282522;22;20468;-87
2023/04/11 15:34:32;;;;;;;7.70;1.47;;;20.00;7.40;;;;;;6300679;22;20469;-92
2023/04/11 15:36:59;;;;;;;12.93;4.90;;;19.70;4.30;;;;;;6305584;22;20418;-91
2023/04/11 17:49:41;;;;;;;7.60;1.83;;;11.40;74.70;;;;;;6306014;22;20523;-93
2023/04/11 17:52:09;;;;;;;13.20;2.60;;;11.20;75.60;;;;;;6305069;22;20421;-94
2023/04/11 17:54:43;;;;;;;8.07;1.80;;;11.20;75.20;;;;;;6298605;22;20444;-94
2023/04/11 17:57:14;;;;;;;12.00;2.77;;;11.10;73.60;;;;;;6297442;22;20490;-93
2023/04/11 18:00:06;;;;;;;6.63;2.23;;;11.00;76.70;;;;;;6296581;22;20410;-94
2023/04/11 18:02:37;;;;;;;10.50;2.43;;;10.90;77.80;;;;;;6282441;22;20418;-93
2023/04/11 18:05:19;;;;;;;8.40;2.10;;;10.80;77.70;;;;;;6297371;22;20414;-94
2023/04/11 18:07:49;;;;;;;7.40;2.43;;;10.60;77.50;;;;;;6296854;22;20436;-93
2023/04/11 18:10:29;;;;;;;10.60;3.40;;;10.50;77.40;;;;;;6299377;22;20430;-94
2023/04/11 18:13:12;;;;;;;8.90;2.87;;;10.40;77.30;;;;;;6299422;22;20448;-94
2023/04/11 18:15:43;;;;;;;14.20;2.90;;;10.20;79.70;;;;;;6298907;22;20386;-93
2023/04/11 18:18:11;;;;;;;6.17;2.03;;;10.10;79.40;;;;;;6298039;22;20414;-93
2023/04/11 18:20:43;;;;;;;5.90;1.87;;;10.10;81.80;;;;;;6297788;22;20937;-94
2023/04/11 18:23:13;;;;;;;8.33;2.07;;;9.90;85.50;;;;;;6298276;22;20410;-94
2023/04/11 18:25:41;;;;;;;8.77;2.70;;;9.80;88.70;;;;;;6296955;22;20417;-94
2023/04/11 18:28:08;;;;;;;10.90;2.77;;;9.70;90.70;;;;;;6298011;22;20458;-93
2023/04/11 18:30:39;;;;;;;10.60;3.30;;;9.70;91.30;;;;;;6297796;22;20452;-94
2023/04/11 18:33:30;;;;;;;12.20;3.00;;;9.50;91.20;;;;;;6297271;22;20410;-94
2023/04/11 18:35:59;;;;;;;6.27;2.30;;;9.30;91.90;;;;;;6297441;22;20469;-94
2023/04/11 18:38:32;;;;;;;8.40;2.80;;;9.20;92.30;;;;;;6297353;22;20418;-94
2023/04/11 18:41:26;;;;;;;9.47;3.73;;;9.20;93.40;;;;;;6297482;22;20184;-94
2023/04/11 18:47:22;;;;;;;9.33;2.93;;;9.00;93.80;;;;;;6286900;22;20407;-94
2023/04/11 18:49:55;;;;;;;19.50;3.80;;;8.90;95.20;;;;;;6287846;22;20449;-94
2023/04/11 18:52:49;;;;;;;10.80;3.17;;;8.90;97.10;;;;;;6297660;22;20441;-94
